FlightSource - Aviation Photo Database

World Wide Airport Lookup


Search by ICAO
Or
Search by City

FlightSource.ca - Aviation Photo Database - Diego Aracena Airport Information
Airport Identification
Name: Diego Aracena Airport
ICAO: SCDA
IATA: IQQ
Airport Location
City: Iquique
Region: TA
Country: Chile
Continent: South America
Latitude: -20.5352
Longitude: -70.1813
Airport Information
Type: Medium Airport
Elevation: 155 Feet ASL
Flight Status: SCDA
More Info: SCDA
Airport Weather    
Metar: SCDA 231500Z 28005KT 9999 OVC033 19/11 Q1016
TAF:


Advertisement